Time;durP1;ratioP1;P1;durP2;ratioP2;P2;SDS_P1;SDS_P2;PMS_P1;PMS_P2;Temp;Humidity;BMP_temperature;BMP_pressure;BME280_temperature;BME280_humidity;BME280_pressure;Samples;Min_cycle;Max_cycle;Signal;HPM_P1;HPM_P2
2022/06/26 00:00:42;;;;;;;4.63;4.22;;;25.30;99.90;;;;;;12981560;22;20165;-83
2022/06/26 00:05:44;;;;;;;4.45;4.05;;;25.20;99.90;;;;;;12981229;22;20166;-83
2022/06/26 00:10:49;;;;;;;4.55;4.15;;;25.20;99.90;;;;;;12981034;22;20232;-83
2022/06/26 00:15:51;;;;;;;5.15;4.75;;;25.20;99.90;;;;;;12980159;22;20734;-83
2022/06/26 00:20:54;;;;;;;5.13;4.68;;;25.10;99.90;;;;;;12984077;22;20169;-83
2022/06/26 00:25:56;;;;;;;4.90;4.50;;;25.10;99.90;;;;;;12985613;22;20193;-83
2022/06/26 00:31:01;;;;;;;4.95;4.45;;;25.10;99.90;;;;;;12984591;22;20186;-83
2022/06/26 00:36:03;;;;;;;5.32;4.90;;;25.00;99.90;;;;;;13003081;22;20506;-85
2022/06/26 00:41:06;;;;;;;4.88;4.38;;;25.00;99.90;;;;;;12984232;22;20174;-83
2022/06/26 00:46:09;;;;;;;4.32;4.03;;;25.00;99.90;;;;;;12985390;22;20239;-83
2022/06/26 00:51:11;;;;;;;4.78;4.38;;;25.00;99.90;;;;;;12986519;22;20605;-83
2022/06/26 00:56:14;;;;;;;5.20;4.80;;;25.00;99.90;;;;;;12958228;22;20170;-83
2022/06/26 01:01:18;;;;;;;4.68;4.28;;;25.00;99.90;;;;;;12984714;22;20223;-83
2022/06/26 01:06:21;;;;;;;4.97;4.47;;;24.90;99.90;;;;;;12983543;22;20165;-83
2022/06/26 01:11:27;;;;;;;4.75;4.35;;;24.90;99.90;;;;;;12981459;22;20173;-83
2022/06/26 01:16:31;;;;;;;5.10;4.70;;;24.80;99.90;;;;;;12982766;22;20169;-83
2022/06/26 01:21:34;;;;;;;5.03;4.63;;;24.80;99.90;;;;;;12983782;22;20201;-83
2022/06/26 01:26:37;;;;;;;4.63;4.30;;;24.80;99.90;;;;;;12982837;22;20182;-83
2022/06/26 01:31:40;;;;;;;4.57;4.18;;;24.80;99.90;;;;;;12981875;22;20173;-83
2022/06/26 01:36:43;;;;;;;4.90;4.50;;;24.80;99.90;;;;;;12984203;22;20169;-83
2022/06/26 01:41:47;;;;;;;5.10;4.60;;;24.70;99.90;;;;;;12981229;22;20231;-83
2022/06/26 01:46:50;;;;;;;4.78;4.38;;;24.70;99.90;;;;;;12956934;22;20186;-83
2022/06/26 01:51:54;;;;;;;4.35;4.05;;;24.70;99.90;;;;;;12981343;22;20174;-83
2022/06/26 01:56:56;;;;;;;4.95;4.55;;;24.70;99.90;;;;;;12982016;22;20181;-83
2022/06/26 02:02:00;;;;;;;4.80;4.40;;;24.60;99.90;;;;;;12981916;22;20232;-83
2022/06/26 02:07:03;;;;;;;4.90;4.47;;;24.60;99.90;;;;;;12983998;22;20636;-83
2022/06/26 02:17:40;;;;;;;4.45;4.15;;;24.60;99.90;;;;;;12988147;22;20182;-83
2022/06/26 02:22:42;;;;;;;5.05;4.60;;;24.50;99.90;;;;;;13033609;22;20169;-83
2022/06/26 02:27:45;;;;;;;4.85;4.50;;;24.50;99.90;;;;;;13037910;22;20193;-83
2022/06/26 02:32:48;;;;;;;4.70;4.30;;;24.50;99.90;;;;;;13011687;22;20173;-83
2022/06/26 02:37:54;;;;;;;5.28;4.82;;;24.50;99.90;;;;;;13038369;22;20219;-83
2022/06/26 02:42:57;;;;;;;4.85;4.45;;;24.40;99.90;;;;;;13038569;22;20166;-84
2022/06/26 02:48:01;;;;;;;4.80;4.38;;;24.50;99.90;;;;;;13039493;22;20207;-83
2022/06/26 02:53:05;;;;;;;5.22;4.80;;;24.50;99.90;;;;;;13039380;22;20191;-83
2022/06/26 02:58:09;;;;;;;5.20;4.70;;;24.40;99.90;;;;;;13039315;22;20157;-83
2022/06/26 03:03:17;;;;;;;5.20;4.70;;;24.40;99.90;;;;;;13039354;22;20229;-83
2022/06/26 03:08:21;;;;;;;5.25;4.78;;;24.40;99.90;;;;;;13039520;22;20190;-83
2022/06/26 03:13:23;;;;;;;4.57;4.18;;;24.40;99.90;;;;;;13014378;22;20237;-83
2022/06/26 03:18:26;;;;;;;5.05;4.65;;;24.40;99.90;;;;;;13020079;22;20170;-82
2022/06/26 03:28:51;;;;;;;4.85;4.45;;;24.30;99.90;;;;;;13034891;22;20206;-82
2022/06/26 03:33:54;;;;;;;5.22;4.80;;;24.40;99.90;;;;;;13014511;22;20177;-82
2022/06/26 03:38:57;;;;;;;4.60;4.30;;;24.40;99.90;;;;;;13013551;22;20203;-82
2022/06/26 03:44:03;;;;;;;5.07;4.68;;;24.30;99.90;;;;;;13033845;22;20509;-82
2022/06/26 03:49:06;;;;;;;5.05;4.65;;;24.30;99.90;;;;;;13014715;22;20227;-82
2022/06/26 03:54:10;;;;;;;5.00;4.60;;;24.30;99.90;;;;;;12994940;22;20178;-83
2022/06/26 03:59:12;;;;;;;5.32;4.80;;;24.30;99.90;;;;;;13024577;22;20195;-82
2022/06/26 04:04:15;;;;;;;5.28;4.78;;;24.30;99.90;;;;;;13023758;22;20173;-83
2022/06/26 04:09:19;;;;;;;5.75;4.47;;;24.30;99.90;;;;;;13024420;22;20193;-83
2022/06/26 04:14:21;;;;;;;5.50;5.00;;;24.30;99.90;;;;;;12998351;22;20170;-82
2022/06/26 04:19:24;;;;;;;5.35;4.95;;;24.30;99.90;;;;;;12986403;22;20170;-82
2022/06/26 04:24:27;;;;;;;4.68;4.38;;;24.30;99.90;;;;;;12984832;22;20201;-83
2022/06/26 04:29:30;;;;;;;5.50;5.00;;;24.30;99.90;;;;;;12986458;22;20186;-83
2022/06/26 04:34:32;;;;;;;4.88;4.50;;;24.40;99.90;;;;;;12985147;22;20174;-83
2022/06/26 04:39:35;;;;;;;5.05;4.65;;;24.70;99.90;;;;;;12984562;22;20178;-82
2022/06/26 04:44:39;;;;;;;5.00;4.60;;;24.60;99.90;;;;;;12986422;22;20547;-82
2022/06/26 04:49:42;;;;;;;5.63;5.00;;;24.50;99.90;;;;;;12986290;22;20227;-82
2022/06/26 04:54:47;;;;;;;4.15;3.85;;;24.40;99.90;;;;;;12985567;22;20223;-83
2022/06/26 04:59:50;;;;;;;5.00;4.60;;;24.40;99.90;;;;;;12959911;22;20173;-83
2022/06/26 05:04:52;;;;;;;5.13;4.72;;;24.40;99.90;;;;;;12985117;22;20177;-83
2022/06/26 05:09:55;;;;;;;5.47;5.07;;;24.40;99.90;;;;;;13008078;22;20194;-83
2022/06/26 05:14:59;;;;;;;5.07;4.68;;;24.30;99.90;;;;;;12985072;22;20166;-83
2022/06/26 05:20:11;;;;;;;5.40;4.80;;;24.40;99.90;;;;;;12983875;22;20169;-84
2022/06/26 05:25:13;;;;;;;5.80;5.22;;;24.30;99.90;;;;;;12985272;22;20556;-84
2022/06/26 05:30:18;;;;;;;5.25;4.80;;;24.30;99.90;;;;;;12985522;22;20239;-84
2022/06/26 05:35:21;;;;;;;5.20;4.80;;;24.40;99.90;;;;;;12984547;22;20196;-84
2022/06/26 05:40:24;;;;;;;5.32;4.93;;;24.40;99.90;;;;;;12959028;22;20208;-84
2022/06/26 05:45:27;;;;;;;5.63;5.05;;;24.40;99.90;;;;;;12985690;22;20200;-83
2022/06/26 05:51:01;;;;;;;5.35;4.95;;;24.40;99.90;;;;;;12991967;22;20575;-84
2022/06/26 05:56:13;;;;;;;5.22;4.82;;;24.40;99.90;;;;;;12984972;22;20294;-83
2022/06/26 06:01:29;;;;;;;5.97;5.45;;;24.40;99.90;;;;;;12984286;22;20524;-83
2022/06/26 06:06:42;;;;;;;5.40;4.97;;;24.40;99.90;;;;;;12984800;22;20177;-84
2022/06/26 06:11:49;;;;;;;5.28;4.88;;;24.40;99.90;;;;;;12984496;22;20566;-84
2022/06/26 06:16:55;;;;;;;5.72;5.22;;;24.40;99.90;;;;;;12987913;22;20174;-85
2022/06/26 06:21:58;;;;;;;5.10;4.70;;;24.50;99.90;;;;;;12983925;22;20227;-84
2022/06/26 06:27:06;;;;;;;5.95;5.45;;;24.60;99.90;;;;;;12978179;22;20182;-83
2022/06/26 06:32:08;;;;;;;5.90;5.40;;;24.60;99.90;;;;;;12979394;22;20536;-84
2022/06/26 06:37:12;;;;;;;4.97;4.57;;;24.70;99.90;;;;;;12978861;22;20288;-84
2022/06/26 06:42:17;;;;;;;5.00;4.60;;;24.70;99.90;;;;;;12979882;22;20519;-84
2022/06/26 06:47:19;;;;;;;4.93;4.53;;;24.80;99.90;;;;;;12979376;22;20475;-84
2022/06/26 06:52:41;;;;;;;5.35;4.95;;;24.90;99.90;;;;;;13003205;22;20174;-85
2022/06/26 06:57:43;;;;;;;4.25;3.95;;;25.00;99.90;;;;;;12979560;22;20569;-82
2022/06/26 07:02:46;;;;;;;5.38;4.90;;;25.00;99.90;;;;;;12979303;22;20558;-83
2022/06/26 07:07:48;;;;;;;5.78;5.28;;;25.10;99.90;;;;;;12978227;22;20166;-84
2022/06/26 07:12:56;;;;;;;6.57;5.97;;;25.20;99.90;;;;;;12979681;22;20203;-83
2022/06/26 07:17:58;;;;;;;4.90;4.40;;;25.30;99.90;;;;;;12981026;22;20537;-83
2022/06/26 07:23:02;;;;;;;5.53;4.93;;;25.30;99.90;;;;;;12978557;22;20197;-83
2022/06/26 07:28:19;;;;;;;4.85;4.45;;;25.40;99.90;;;;;;12979000;22;20255;-83
2022/06/26 07:38:43;;;;;;;5.35;4.85;;;25.60;99.90;;;;;;12978158;22;20181;-84
2022/06/26 07:43:45;;;;;;;5.43;4.88;;;25.70;99.90;;;;;;12954150;22;20200;-84
2022/06/26 07:48:48;;;;;;;4.90;4.50;;;25.80;99.90;;;;;;12996739;22;20186;-84
2022/06/26 07:53:50;;;;;;;5.18;4.78;;;25.90;99.90;;;;;;12978398;22;20497;-85
2022/06/26 07:58:55;;;;;;;5.53;5.03;;;26.00;99.90;;;;;;12978771;22;20178;-85
2022/06/26 08:03:57;;;;;;;5.13;4.72;;;26.00;99.90;;;;;;12981103;22;20174;-84
2022/06/26 08:09:01;;;;;;;5.90;5.40;;;26.00;99.90;;;;;;12978176;22;20223;-82
2022/06/26 08:14:06;;;;;;;9.05;6.13;;;26.30;99.90;;;;;;12978319;22;20232;-82
2022/06/26 08:19:08;;;;;;;5.13;4.72;;;26.30;99.90;;;;;;12978099;22;20220;-82
2022/06/26 08:24:11;;;;;;;6.82;5.50;;;26.20;99.90;;;;;;12979989;22;20193;-82
2022/06/26 08:29:15;;;;;;;6.10;5.50;;;26.60;99.90;;;;;;12995478;22;20186;-82
2022/06/26 08:34:18;;;;;;;5.68;5.18;;;26.60;99.90;;;;;;12979191;22;20166;-80
2022/06/26 08:39:22;;;;;;;8.73;5.50;;;26.60;99.90;;;;;;12994764;22;20220;-81
2022/06/26 08:44:25;;;;;;;5.45;5.05;;;26.80;99.90;;;;;;12983969;22;20169;-81
2022/06/26 08:49:27;;;;;;;7.15;5.30;;;26.70;99.80;;;;;;12982194;22;20256;-81
2022/06/26 08:54:33;;;;;;;6.53;5.75;;;26.20;99.90;;;;;;12982185;22;20231;-81
2022/06/26 08:59:35;;;;;;;5.80;5.30;;;26.20;99.90;;;;;;12956390;22;20227;-81
2022/06/26 09:04:38;;;;;;;6.65;6.15;;;26.20;99.90;;;;;;12983136;22;20177;-82
2022/06/26 09:09:41;;;;;;;6.65;6.05;;;26.10;99.90;;;;;;12981492;22;20197;-82
2022/06/26 09:14:44;;;;;;;5.70;5.20;;;25.90;99.90;;;;;;12983977;22;20161;-82
2022/06/26 09:19:51;;;;;;;9.35;5.88;;;26.20;99.80;;;;;;12982814;22;20170;-82
2022/06/26 09:24:57;;;;;;;7.13;6.43;;;26.10;99.90;;;;;;12989097;22;20197;-82
2022/06/26 09:30:01;;;;;;;8.25;6.60;;;26.20;98.50;;;;;;12999835;22;20190;-82
2022/06/26 09:35:04;;;;;;;7.20;6.50;;;26.00;99.90;;;;;;12983323;22;20169;-82
2022/06/26 09:40:07;;;;;;;7.65;6.90;;;26.10;99.90;;;;;;12982734;22;20178;-82
2022/06/26 09:45:10;;;;;;;7.47;6.78;;;26.40;99.90;;;;;;12982110;22;20193;-82
2022/06/26 09:50:13;;;;;;;7.80;7.03;;;26.20;99.90;;;;;;12982710;22;20190;-81
2022/06/26 09:55:15;;;;;;;8.73;6.57;;;26.00;99.90;;;;;;12983330;22;20170;-81
2022/06/26 10:00:18;;;;;;;6.30;5.00;;;26.50;99.90;;;;;;12982852;22;20196;-81
2022/06/26 10:10:47;;;;;;;7.57;6.32;;;26.40;99.40;;;;;;12991538;22;20181;-82
2022/06/26 10:16:03;;;;;;;5.10;4.70;;;26.30;99.90;;;;;;13000362;22;20162;-81
2022/06/26 10:21:09;;;;;;;11.25;6.95;;;27.50;96.40;;;;;;13000368;22;20508;-81
2022/06/26 10:26:17;;;;;;;6.00;4.38;;;27.10;95.40;;;;;;12981196;22;20190;-81
2022/06/26 10:31:20;;;;;;;6.25;4.60;;;27.10;97.40;;;;;;12997252;22;20189;-82
2022/06/26 10:36:24;;;;;;;4.30;3.90;;;27.30;95.50;;;;;;12982417;22;20166;-81
2022/06/26 10:46:59;;;;;;;6.88;6.18;;;28.00;95.00;;;;;;12978999;22;20219;-81
2022/06/26 10:52:02;;;;;;;7.30;5.60;;;27.80;93.70;;;;;;12979363;22;20186;-81
2022/06/26 10:57:15;;;;;;;4.95;3.90;;;28.10;94.30;;;;;;12980490;22;20170;-81
2022/06/26 11:02:17;;;;;;;7.70;4.15;;;28.90;85.30;;;;;;12995382;22;20219;-82
2022/06/26 11:07:20;;;;;;;7.32;5.53;;;29.50;86.30;;;;;;12977905;22;20177;-83
2022/06/26 11:12:22;;;;;;;5.68;5.18;;;29.40;82.80;;;;;;12980417;22;20231;-81
2022/06/26 11:17:25;;;;;;;6.13;4.95;;;28.80;91.30;;;;;;12998507;22;20853;-82
2022/06/26 11:22:28;;;;;;;9.55;5.18;;;28.50;88.30;;;;;;12976885;22;20201;-81
2022/06/26 11:27:30;;;;;;;5.05;4.57;;;27.90;91.10;;;;;;12980528;22;20174;-82
2022/06/26 11:32:34;;;;;;;4.63;4.22;;;28.10;82.40;;;;;;12998062;22;20245;-82
2022/06/26 11:37:38;;;;;;;6.05;5.55;;;29.60;82.30;;;;;;12980261;22;20508;-82
2022/06/26 11:42:42;;;;;;;8.90;3.38;;;28.40;91.40;;;;;;12949918;22;20240;-82
2022/06/26 11:47:45;;;;;;;5.05;4.18;;;29.20;75.30;;;;;;12977723;22;20549;-82
2022/06/26 11:52:55;;;;;;;7.15;4.78;;;28.70;82.70;;;;;;12975970;22;20224;-82
2022/06/26 11:58:00;;;;;;;6.32;5.13;;;28.80;77.60;;;;;;12976541;22;20808;-82
2022/06/26 12:03:03;;;;;;;6.03;4.82;;;28.50;81.60;;;;;;12994495;22;20239;-82
2022/06/26 12:08:17;;;;;;;5.05;4.65;;;28.10;82.80;;;;;;12979280;22;20640;-82
2022/06/26 12:13:25;;;;;;;5.40;5.00;;;28.00;82.00;;;;;;12975302;22;20224;-82
2022/06/26 12:18:29;;;;;;;4.50;4.20;;;28.50;90.20;;;;;;12981310;22;20227;-82
2022/06/26 12:23:39;;;;;;;6.90;4.78;;;28.50;76.70;;;;;;12980923;22;20582;-82
2022/06/26 12:28:53;;;;;;;4.40;3.58;;;29.50;84.40;;;;;;13002064;22;20547;-82
2022/06/26 12:33:55;;;;;;;3.53;3.22;;;29.80;80.50;;;;;;12982348;22;20162;-82
2022/06/26 12:38:59;;;;;;;5.32;4.90;;;30.20;68.50;;;;;;12982818;22;20200;-84
2022/06/26 12:44:02;;;;;;;5.13;4.70;;;30.20;79.30;;;;;;12982631;22;20223;-84
2022/06/26 12:49:05;;;;;;;5.00;3.85;;;29.10;86.80;;;;;;12980284;22;20196;-84
2022/06/26 12:54:07;;;;;;;6.20;4.40;;;29.70;73.20;;;;;;12982625;22;20220;-83
2022/06/26 12:59:10;;;;;;;5.63;4.85;;;30.20;71.90;;;;;;12955102;22;20200;-83
2022/06/26 13:04:12;;;;;;;5.25;4.75;;;30.00;73.90;;;;;;12980622;22;20203;-84
2022/06/26 13:09:15;;;;;;;5.10;4.60;;;28.80;78.10;;;;;;12980810;22;20166;-82
2022/06/26 13:14:18;;;;;;;5.00;4.60;;;29.20;82.20;;;;;;12980438;22;20215;-84
2022/06/26 13:19:20;;;;;;;5.57;5.18;;;28.90;80.90;;;;;;12953540;22;20227;-83
2022/06/26 13:24:23;;;;;;;13.10;9.15;;;28.40;85.40;;;;;;12977429;22;20243;-84
2022/06/26 13:29:25;;;;;;;5.60;5.10;;;28.20;76.50;;;;;;12981331;22;20213;-84
2022/06/26 13:34:29;;;;;;;5.82;5.30;;;28.70;77.30;;;;;;12981878;22;20166;-84
2022/06/26 13:39:31;;;;;;;8.10;4.70;;;27.90;86.00;;;;;;12980346;22;20496;-84
2022/06/26 13:44:34;;;;;;;11.05;5.72;;;28.60;76.70;;;;;;12979770;22;20566;-84
2022/06/26 13:49:38;;;;;;;6.38;5.35;;;29.30;74.50;;;;;;12997901;22;20186;-84
2022/06/26 13:54:43;;;;;;;7.15;5.72;;;28.70;86.10;;;;;;12982299;22;20216;-84
2022/06/26 13:59:45;;;;;;;6.10;5.50;;;28.20;84.70;;;;;;12981597;22;20192;-84
2022/06/26 14:04:48;;;;;;;6.18;5.47;;;28.70;82.50;;;;;;12981420;22;20170;-84
2022/06/26 14:09:51;;;;;;;6.97;4.70;;;29.10;74.10;;;;;;12982496;22;20208;-84
2022/06/26 14:14:55;;;;;;;12.07;5.60;;;28.20;78.40;;;;;;12999514;22;20170;-84
2022/06/26 14:19:58;;;;;;;8.23;5.20;;;28.90;75.10;;;;;;12980091;22;20166;-84
2022/06/26 14:30:21;;;;;;;5.03;4.55;;;28.20;87.90;;;;;;12999311;22;20189;-84
2022/06/26 14:35:24;;;;;;;5.65;4.97;;;28.60;78.40;;;;;;12977498;22;20711;-84
2022/06/26 14:40:27;;;;;;;6.10;5.50;;;28.60;77.30;;;;;;12976973;22;20170;-84
2022/06/26 14:45:29;;;;;;;5.65;5.15;;;27.70;87.10;;;;;;12979871;22;20170;-84
2022/06/26 14:50:32;;;;;;;5.53;4.97;;;27.60;85.40;;;;;;12981220;22;20189;-84
2022/06/26 14:55:35;;;;;;;5.70;5.28;;;27.60;83.30;;;;;;12991333;22;20170;-84
2022/06/26 15:00:38;;;;;;;5.72;5.22;;;27.80;81.20;;;;;;12952620;22;20630;-84
2022/06/26 15:05:40;;;;;;;4.60;4.18;;;27.60;90.30;;;;;;12980276;22;20174;-85
2022/06/26 15:10:43;;;;;;;7.18;4.75;;;28.60;86.70;;;;;;12981189;22;20181;-84
2022/06/26 15:15:45;;;;;;;4.72;4.40;;;28.10;79.80;;;;;;12981367;22;20200;-84
2022/06/26 15:20:48;;;;;;;5.13;4.50;;;28.60;74.30;;;;;;12978161;22;20563;-85
2022/06/26 15:25:50;;;;;;;5.25;4.75;;;28.50;81.90;;;;;;12980545;22;20623;-84
2022/06/26 15:30:53;;;;;;;5.47;4.97;;;28.00;90.40;;;;;;12978885;22;20220;-84
2022/06/26 15:35:56;;;;;;;5.45;5.05;;;28.00;84.70;;;;;;12976467;22;20568;-84
2022/06/26 15:41:04;;;;;;;5.55;5.15;;;27.60;90.90;;;;;;12988189;22;20251;-84
2022/06/26 15:46:07;;;;;;;5.57;5.03;;;27.30;92.20;;;;;;12980768;22;20169;-84
2022/06/26 15:51:09;;;;;;;6.72;5.60;;;27.30;92.30;;;;;;12982254;22;20251;-85
2022/06/26 15:56:12;;;;;;;6.43;5.93;;;27.10;90.60;;;;;;12981673;22;20169;-84
2022/06/26 16:01:15;;;;;;;6.00;5.50;;;26.80;93.00;;;;;;12982873;22;20174;-84
2022/06/26 16:06:17;;;;;;;6.32;5.82;;;26.90;93.00;;;;;;13002824;22;20165;-85
2022/06/26 16:11:20;;;;;;;6.22;5.45;;;26.70;93.20;;;;;;12983863;22;20563;-84
2022/06/26 16:16:23;;;;;;;7.50;5.20;;;27.00;91.30;;;;;;13000861;22;20305;-84
2022/06/26 16:21:25;;;;;;;7.70;5.82;;;27.10;88.10;;;;;;12981111;22;20178;-83
2022/06/26 16:26:28;;;;;;;5.40;4.88;;;27.60;90.80;;;;;;12989729;22;20173;-83
2022/06/26 16:31:31;;;;;;;5.75;4.93;;;27.40;87.80;;;;;;12984009;22;20185;-84
2022/06/26 16:36:34;;;;;;;6.15;5.57;;;27.50;91.00;;;;;;12983412;22;20223;-83
2022/06/26 16:41:36;;;;;;;5.75;5.25;;;27.90;90.70;;;;;;12981555;22;20181;-83
2022/06/26 16:46:39;;;;;;;7.35;5.55;;;27.50;91.60;;;;;;12982838;22;20228;-83
2022/06/26 16:51:42;;;;;;;5.45;5.05;;;27.60;91.60;;;;;;12983524;22;20185;-82
2022/06/26 16:56:44;;;;;;;5.78;5.28;;;27.50;91.50;;;;;;12953102;22;20237;-82
2022/06/26 17:01:47;;;;;;;6.35;5.85;;;27.60;91.70;;;;;;12980844;22;20524;-82
2022/06/26 17:06:50;;;;;;;8.82;5.57;;;27.70;91.30;;;;;;12980639;22;20170;-83
2022/06/26 17:11:55;;;;;;;6.22;5.07;;;27.70;90.00;;;;;;12978952;22;20248;-83
2022/06/26 17:16:58;;;;;;;5.18;4.70;;;27.40;86.80;;;;;;12979380;22;20166;-82
2022/06/26 17:22:01;;;;;;;6.07;5.47;;;27.30;91.20;;;;;;12982151;22;20669;-82
2022/06/26 17:27:04;;;;;;;6.20;5.70;;;27.50;91.40;;;;;;12981905;22;20166;-82
2022/06/26 17:32:07;;;;;;;7.57;5.07;;;27.30;92.30;;;;;;12980410;22;20212;-82
2022/06/26 17:37:11;;;;;;;6.28;5.78;;;27.40;90.80;;;;;;12979813;22;20195;-83
2022/06/26 17:42:14;;;;;;;5.43;5.03;;;27.10;93.00;;;;;;12979572;22;20169;-83
2022/06/26 17:52:37;;;;;;;5.53;5.13;;;26.80;93.30;;;;;;12982371;22;20268;-82
2022/06/26 17:57:41;;;;;;;6.18;5.47;;;26.80;94.20;;;;;;12980438;22;20166;-82
2022/06/26 18:02:43;;;;;;;6.38;5.88;;;26.60;94.60;;;;;;12981813;22;20508;-83
2022/06/26 18:07:46;;;;;;;6.38;5.63;;;26.50;95.00;;;;;;12980053;22;20195;-82
2022/06/26 18:12:51;;;;;;;5.80;5.30;;;26.30;94.80;;;;;;12980941;22;20208;-82
2022/06/26 18:17:55;;;;;;;5.70;5.30;;;26.10;95.40;;;;;;12980492;22;20637;-82
2022/06/26 18:22:58;;;;;;;5.53;5.03;;;25.90;96.70;;;;;;12978486;22;20243;-81
2022/06/26 18:28:00;;;;;;;6.07;5.57;;;25.90;96.10;;;;;;12977222;22;20208;-82
2022/06/26 18:33:03;;;;;;;7.10;5.10;;;25.80;97.30;;;;;;12995920;22;20185;-82
2022/06/26 18:38:05;;;;;;;5.47;5.07;;;25.70;97.50;;;;;;12978779;22;20223;-81
2022/06/26 18:43:08;;;;;;;6.63;6.05;;;25.50;98.40;;;;;;12979043;22;20216;-81
2022/06/26 18:48:12;;;;;;;5.90;5.40;;;25.30;99.10;;;;;;12978653;22;20231;-82
2022/06/26 18:53:14;;;;;;;6.03;5.53;;;25.20;99.40;;;;;;12980633;22;20571;-82
2022/06/26 18:58:17;;;;;;;5.82;5.43;;;25.10;99.90;;;;;;12980013;22;20166;-84
2022/06/26 19:03:22;;;;;;;7.07;6.38;;;25.00;99.90;;;;;;12980640;22;20216;-84
2022/06/26 19:08:25;;;;;;;259.30;33.97;;;24.90;99.90;;;;;;12999396;22;20231;-82
2022/06/26 19:18:57;;;;;;;56.80;12.77;;;24.70;99.90;;;;;;12998444;22;20188;-82
2022/06/26 19:23:59;;;;;;;108.50;17.75;;;24.70;99.90;;;;;;12979136;22;20205;-82
2022/06/26 19:29:03;;;;;;;97.45;15.45;;;24.60;99.90;;;;;;12979534;22;20613;-82
2022/06/26 19:34:08;;;;;;;100.47;16.77;;;24.50;99.90;;;;;;12980484;22;20186;-82
2022/06/26 19:39:11;;;;;;;78.40;15.45;;;24.50;99.90;;;;;;12978478;22;20636;-82
2022/06/26 19:44:14;;;;;;;65.60;14.90;;;24.40;99.90;;;;;;12976041;22;20220;-82
2022/06/26 19:54:37;;;;;;;67.40;14.73;;;24.40;99.90;;;;;;12974405;22;20201;-82
2022/06/26 19:59:40;;;;;;;54.72;12.10;;;24.30;99.90;;;;;;12976511;22;20192;-82
2022/06/26 20:04:42;;;;;;;62.25;14.98;;;24.30;99.90;;;;;;12974613;22;20169;-82
2022/06/26 20:09:46;;;;;;;67.00;13.60;;;24.20;99.90;;;;;;12974967;22;20914;-83
2022/06/26 20:14:48;;;;;;;67.22;14.35;;;24.20;99.90;;;;;;12995210;22;20190;-83
2022/06/26 20:19:51;;;;;;;46.42;10.32;;;24.20;99.90;;;;;;12975571;22;20166;-82
2022/06/26 20:24:53;;;;;;;47.42;12.07;;;24.10;99.90;;;;;;12975776;22;20215;-82
2022/06/26 20:29:56;;;;;;;42.53;11.82;;;24.20;99.90;;;;;;12973348;22;20235;-82
2022/06/26 20:34:58;;;;;;;39.60;11.68;;;24.20;99.90;;;;;;12976962;22;20606;-82
2022/06/26 20:40:05;;;;;;;50.25;10.95;;;24.20;99.90;;;;;;12979251;22;20688;-82
2022/06/26 20:45:09;;;;;;;42.28;10.82;;;24.10;99.90;;;;;;12995631;22;20169;-82
2022/06/26 20:50:12;;;;;;;43.67;10.75;;;24.10;99.90;;;;;;12978067;22;20196;-82
2022/06/26 20:55:15;;;;;;;36.58;10.35;;;24.10;99.90;;;;;;12978152;22;20270;-82
2022/06/26 21:00:22;;;;;;;30.08;9.98;;;24.10;99.90;;;;;;12999447;22;20166;-82
2022/06/26 21:05:24;;;;;;;26.02;9.90;;;24.10;99.90;;;;;;12977832;22;20177;-82
2022/06/26 21:10:28;;;;;;;34.17;11.00;;;24.10;99.90;;;;;;12980012;22;20174;-82
2022/06/26 21:15:30;;;;;;;25.45;9.77;;;24.00;99.90;;;;;;12978408;22;20190;-82
2022/06/26 21:20:39;;;;;;;27.80;9.35;;;24.00;99.90;;;;;;12978128;22;20200;-82
2022/06/26 21:25:41;;;;;;;24.08;8.75;;;24.00;99.90;;;;;;12980710;22;20540;-82
2022/06/26 21:30:44;;;;;;;25.67;9.65;;;24.00;99.90;;;;;;12952524;22;20223;-82
2022/06/26 21:35:46;;;;;;;22.70;9.30;;;24.00;99.90;;;;;;12997807;22;20189;-82
2022/06/26 21:40:50;;;;;;;18.10;8.57;;;24.00;99.90;;;;;;12979254;22;20173;-83
2022/06/26 21:45:52;;;;;;;17.88;8.38;;;24.00;99.90;;;;;;12954971;22;20227;-82
2022/06/26 21:50:55;;;;;;;17.75;8.52;;;24.00;99.90;;;;;;13000886;22;20496;-83
2022/06/26 21:55:57;;;;;;;24.60;9.07;;;23.70;99.90;;;;;;12980901;22;20189;-82
2022/06/26 22:01:00;;;;;;;24.70;8.25;;;23.80;99.90;;;;;;12982356;22;20162;-82
2022/06/26 22:06:03;;;;;;;18.92;7.95;;;23.90;99.90;;;;;;12955334;22;20173;-82
2022/06/26 22:11:05;;;;;;;16.67;7.70;;;23.90;99.90;;;;;;12980722;22;20170;-82
2022/06/26 22:16:08;;;;;;;22.95;9.10;;;23.90;99.90;;;;;;12979588;22;20197;-82
2022/06/26 22:21:10;;;;;;;13.50;8.10;;;23.90;99.90;;;;;;12982039;22;20166;-82
2022/06/26 22:31:34;;;;;;;10.48;6.88;;;23.90;99.90;;;;;;12998837;22;20243;-82
2022/06/26 22:36:37;;;;;;;15.77;7.38;;;23.90;99.90;;;;;;12981744;22;20494;-82
2022/06/26 22:41:41;;;;;;;11.32;7.32;;;23.90;99.90;;;;;;12979882;22;20174;-82
2022/06/26 22:46:44;;;;;;;13.75;8.02;;;23.80;99.90;;;;;;12981314;22;20625;-82
2022/06/26 22:51:47;;;;;;;11.68;6.47;;;23.80;99.90;;;;;;12981436;22;20231;-82
2022/06/26 22:56:49;;;;;;;14.48;7.80;;;23.80;99.90;;;;;;12981148;22;20215;-82
2022/06/26 23:01:52;;;;;;;15.57;7.13;;;23.80;99.90;;;;;;12997699;22;20166;-82
2022/06/26 23:06:55;;;;;;;15.70;6.93;;;23.90;99.90;;;;;;12979611;22;20178;-82
2022/06/26 23:11:57;;;;;;;15.45;7.60;;;23.90;99.90;;;;;;12981254;22;20235;-82
2022/06/26 23:17:00;;;;;;;11.23;7.68;;;23.90;99.90;;;;;;12978420;22;20231;-82
2022/06/26 23:22:03;;;;;;;13.75;7.53;;;23.80;99.90;;;;;;12954026;22;20201;-82
2022/06/26 23:27:06;;;;;;;14.25;7.07;;;23.80;99.90;;;;;;12979049;22;20186;-82
2022/06/26 23:32:09;;;;;;;11.05;7.05;;;23.80;99.90;;;;;;12981596;22;20189;-82
2022/06/26 23:37:11;;;;;;;13.70;6.97;;;23.70;99.90;;;;;;12979326;22;20498;-82
2022/06/26 23:42:14;;;;;;;9.65;6.45;;;23.80;99.90;;;;;;12981250;22;20690;-82
2022/06/26 23:47:16;;;;;;;12.88;6.60;;;23.80;99.90;;;;;;12980656;22;20170;-82
2022/06/26 23:52:19;;;;;;;9.98;7.28;;;23.80;99.90;;;;;;12980447;22;20235;-82
2022/06/26 23:57:21;;;;;;;8.93;6.82;;;23.70;99.90;;;;;;12978916;22;20234;-82
